Time;durP1;ratioP1;P1;durP2;ratioP2;P2;SDS_P1;SDS_P2;PMS_P1;PMS_P2;Temp;Humidity;BMP_temperature;BMP_pressure;BME280_temperature;BME280_humidity;BME280_pressure;Samples;Min_cycle;Max_cycle;Signal;HPM_P1;HPM_P2
2024/04/22 00:01:50;;;;;;;2.07;1.87;;;;;;;2.88;73.15;100613.00;5450363;26;20287;-62
2024/04/22 00:04:20;;;;;;;3.33;2.30;;;;;;;2.92;73.33;100603.78;5452926;26;20580;-63
2024/04/22 00:06:47;;;;;;;2.77;2.50;;;;;;;2.93;73.41;100605.50;5452344;26;20234;-62
2024/04/22 00:09:17;;;;;;;3.00;2.10;;;;;;;2.96;73.76;100603.06;5452911;26;20306;-64
2024/04/22 00:11:47;;;;;;;3.97;2.33;;;;;;;2.93;73.42;100615.69;5448710;26;20242;-64
2024/04/22 00:14:17;;;;;;;5.67;2.57;;;;;;;2.91;73.50;100599.53;5452137;26;20709;-64
2024/04/22 00:16:44;;;;;;;3.57;2.17;;;;;;;2.87;73.61;100598.56;5452243;26;21154;-61
2024/04/22 00:19:14;;;;;;;6.87;2.33;;;;;;;2.79;73.48;100594.06;5449500;26;20262;-61
2024/04/22 00:21:41;;;;;;;4.27;2.40;;;;;;;2.76;73.77;100594.88;5452184;26;20713;-63
2024/04/22 00:24:11;;;;;;;2.80;2.10;;;;;;;2.78;74.18;100593.19;5452561;26;20233;-61
2024/04/22 00:26:38;;;;;;;4.10;2.43;;;;;;;2.75;73.74;100588.03;5452659;26;20662;-61
2024/04/22 00:29:11;;;;;;;5.23;2.30;;;;;;;2.71;73.74;100586.22;5452277;26;20350;-59
2024/04/22 00:31:38;;;;;;;4.47;2.50;;;;;;;2.70;74.05;100584.50;5448168;26;20780;-61
2024/04/22 00:34:08;;;;;;;5.73;2.53;;;;;;;2.65;74.07;100586.03;5451466;26;20234;-60
2024/04/22 00:36:35;;;;;;;3.10;2.17;;;;;;;2.66;73.87;100586.09;5449769;26;20318;-62
2024/04/22 00:39:05;;;;;;;3.80;2.33;;;;;;;2.65;73.99;100592.00;5452575;26;20234;-60
2024/04/22 00:41:33;;;;;;;2.57;2.10;;;;;;;2.69;73.84;100586.97;5450942;26;20288;-60
2024/04/22 00:44:03;;;;;;;3.67;1.40;;;;;;;2.69;73.98;100580.22;5452095;26;20234;-60
2024/04/22 00:46:33;;;;;;;3.77;2.40;;;;;;;2.70;73.59;100581.09;5451786;26;20246;-67
2024/04/22 00:49:03;;;;;;;5.00;1.83;;;;;;;2.67;73.36;100590.34;5449570;26;20246;-60
2024/04/22 00:51:31;;;;;;;2.03;1.80;;;;;;;2.65;73.37;100580.94;5448856;26;20632;-62
2024/04/22 00:54:02;;;;;;;3.60;2.37;;;;;;;2.59;73.06;100589.28;5448373;26;20633;-61
2024/04/22 00:56:29;;;;;;;2.70;2.10;;;;;;;2.57;73.16;100587.50;5452044;26;20234;-61
2024/04/22 00:59:02;;;;;;;4.20;2.37;;;;;;;2.57;73.20;100580.72;5448034;26;20619;-60
2024/04/22 01:01:33;;;;;;;3.30;2.53;;;;;;;2.57;72.94;100585.81;5450992;26;20234;-60
2024/04/22 01:04:03;;;;;;;3.03;1.77;;;;;;;2.59;73.05;100593.50;5442349;26;20721;-62
2024/04/22 01:06:33;;;;;;;2.17;1.63;;;;;;;2.58;73.15;100574.84;5451873;26;20820;-61
2024/04/22 01:09:00;;;;;;;3.57;2.20;;;;;;;2.61;73.48;100577.47;5449518;26;20242;-61
2024/04/22 01:11:30;;;;;;;2.30;2.00;;;;;;;2.66;73.29;100583.53;5450595;26;20250;-60
2024/04/22 01:13:57;;;;;;;2.87;1.90;;;;;;;2.66;72.69;100582.69;5450783;26;20235;-61
2024/04/22 01:16:27;;;;;;;2.17;1.93;;;;;;;2.64;72.70;100584.31;5451592;26;20234;-59
2024/04/22 01:18:54;;;;;;;2.30;2.00;;;;;;;2.56;72.59;100575.59;5447553;26;20297;-60
2024/04/22 01:21:30;;;;;;;3.53;1.80;;;;;;;2.52;72.67;100581.41;5451264;26;20805;-60
2024/04/22 01:23:58;;;;;;;3.67;2.00;;;;;;;2.54;72.94;100580.66;5451256;26;20709;-62
2024/04/22 01:26:28;;;;;;;3.27;1.67;;;;;;;2.58;72.95;100581.59;5450137;26;21417;-66
2024/04/22 01:28:56;;;;;;;2.00;1.50;;;;;;;2.57;72.51;100584.94;5451121;26;20759;-68
2024/04/22 01:31:25;;;;;;;4.40;1.97;;;;;;;2.57;72.23;100584.94;5451839;26;20230;-66
2024/04/22 01:33:53;;;;;;;1.60;1.50;;;;;;;2.61;72.56;100574.03;5451374;26;20242;-65
2024/04/22 01:36:22;;;;;;;3.03;1.77;;;;;;;2.61;72.19;100574.94;5448559;26;20250;-66
2024/04/22 01:38:52;;;;;;;1.90;1.70;;;;;;;2.55;72.11;100568.78;5451603;26;20226;-68
2024/04/22 01:41:22;;;;;;;1.73;1.63;;;;;;;2.52;72.20;100573.78;5449462;26;20242;-67
2024/04/22 01:43:49;;;;;;;2.43;1.93;;;;;;;2.50;72.14;100576.25;5447895;26;20332;-67
2024/04/22 01:46:19;;;;;;;3.43;1.80;;;;;;;2.50;72.27;100571.19;5451921;26;20246;-67
2024/04/22 01:48:46;;;;;;;1.60;1.50;;;;;;;2.51;72.34;100572.06;5449615;26;20585;-66
2024/04/22 01:51:16;;;;;;;4.27;2.20;;;;;;;2.53;72.62;100570.41;5451129;26;20234;-68
2024/04/22 01:53:43;;;;;;;2.13;1.93;;;;;;;2.54;72.34;100567.03;5450094;26;20634;-67
2024/04/22 01:56:16;;;;;;;2.13;1.80;;;;;;;2.54;72.39;100567.94;5450116;26;20230;-68
2024/04/22 01:58:44;;;;;;;4.00;1.80;;;;;;;2.60;72.53;100569.78;5451388;26;20815;-66
2024/04/22 02:01:14;;;;;;;2.23;2.03;;;;;;;2.63;71.94;100562.25;5451618;26;20760;-68
2024/04/22 02:03:41;;;;;;;3.47;2.10;;;;;;;2.64;71.83;100567.34;5447940;26;20665;-66
2024/04/22 02:06:11;;;;;;;3.20;1.63;;;;;;;2.69;72.05;100567.50;5451867;26;20264;-66
2024/04/22 02:08:38;;;;;;;1.80;1.63;;;;;;;2.69;71.62;100567.50;5450795;26;20353;-65
2024/04/22 02:11:08;;;;;;;2.67;1.90;;;;;;;2.69;71.57;100572.59;5450563;26;20241;-66
2024/04/22 02:13:38;;;;;;;4.27;2.00;;;;;;;2.65;71.42;100566.56;5448734;26;20267;-66
2024/04/22 02:16:08;;;;;;;5.57;2.00;;;;;;;2.59;71.68;100552.78;5450753;26;20659;-68
2024/04/22 02:18:36;;;;;;;2.97;1.50;;;;;;;2.57;71.89;100559.50;5450341;26;20234;-66
2024/04/22 02:21:06;;;;;;;2.33;1.80;;;;;;;2.56;72.00;100547.63;5449322;26;21203;-67
2024/04/22 02:23:33;;;;;;;2.57;1.80;;;;;;;2.55;71.94;100554.38;5450494;26;20230;-68
2024/04/22 02:26:03;;;;;;;4.23;1.83;;;;;;;2.53;72.25;100550.91;5428768;26;20234;-68
2024/04/22 02:28:30;;;;;;;2.07;1.80;;;;;;;2.51;72.25;100551.72;5450697;26;20306;-67
2024/04/22 02:31:02;;;;;;;3.07;1.83;;;;;;;2.50;72.30;100555.91;5448024;26;20289;-66
2024/04/22 02:33:30;;;;;;;3.87;1.80;;;;;;;2.53;72.29;100560.25;5448199;26;20323;-65
2024/04/22 02:36:00;;;;;;;2.07;1.77;;;;;;;2.51;72.18;100552.56;5450511;26;20246;-62
2024/04/22 02:38:27;;;;;;;1.97;1.67;;;;;;;2.56;72.29;100552.69;5443763;26;20246;-63
2024/04/22 02:40:56;;;;;;;4.80;2.07;;;;;;;2.59;72.27;100546.03;5449310;26;20606;-63
2024/04/22 02:43:24;;;;;;;2.00;1.60;;;;;;;2.64;72.24;100548.69;5449462;26;20580;-63
2024/04/22 02:45:53;;;;;;;3.70;1.40;;;;;;;2.67;72.16;100543.69;5450148;26;20338;-63
2024/04/22 02:48:23;;;;;;;1.60;1.50;;;;;;;2.71;72.08;100545.50;5450593;26;20246;-64
2024/04/22 02:50:53;;;;;;;2.53;1.57;;;;;;;2.70;71.80;100531.06;5449852;26;20725;-62
2024/04/22 02:53:20;;;;;;;4.57;1.67;;;;;;;2.71;71.59;100540.41;5450590;26;20222;-63
2024/04/22 02:55:50;;;;;;;1.67;1.50;;;;;;;2.68;71.81;100535.22;5446446;26;20902;-63
2024/04/22 02:58:17;;;;;;;2.53;1.70;;;;;;;2.69;71.96;100536.97;5453897;26;20805;-62
2024/04/22 03:00:53;;;;;;;1.60;1.37;;;;;;;2.72;71.99;100534.50;5453647;26;20238;-61
2024/04/22 03:03:23;;;;;;;2.73;1.50;;;;;;;2.74;72.07;100530.31;5453988;26;20265;-62
2024/04/22 03:05:53;;;;;;;2.03;1.50;;;;;;;2.74;71.74;100530.31;5453034;26;20709;-61
2024/04/22 03:08:20;;;;;;;4.17;1.43;;;;;;;2.72;71.94;100526.88;5459328;26;20246;-61
2024/04/22 03:10:50;;;;;;;2.77;1.67;;;;;;;2.74;71.83;100534.56;5451392;26;20289;-62
2024/04/22 03:13:17;;;;;;;2.60;1.80;;;;;;;2.73;71.96;100518.44;5450801;26;20832;-63
2024/04/22 03:15:47;;;;;;;1.53;1.43;;;;;;;2.74;71.96;100526.94;5453741;26;20245;-61
2024/04/22 03:18:14;;;;;;;4.77;2.10;;;;;;;2.74;72.07;100534.56;5453115;26;20246;-63
2024/04/22 03:20:47;;;;;;;2.03;1.87;;;;;;;2.74;71.95;100532.88;5445203;26;20281;-62
2024/04/22 03:23:14;;;;;;;3.10;1.93;;;;;;;2.72;71.85;100544.66;5450433;26;20849;-61
2024/04/22 03:25:44;;;;;;;2.77;1.77;;;;;;;2.68;71.88;100535.22;5449176;26;20277;-64
2024/04/22 03:28:12;;;;;;;2.50;1.83;;;;;;;2.64;72.24;100539.38;5433024;26;20277;-61
2024/04/22 03:30:41;;;;;;;1.63;1.53;;;;;;;2.64;72.50;100536.81;5451671;26;20241;-63
2024/04/22 03:33:09;;;;;;;2.70;1.80;;;;;;;2.64;72.22;100533.44;5452957;26;20338;-62
2024/04/22 03:35:38;;;;;;;4.33;1.90;;;;;;;2.62;72.54;100530.00;5452566;26;20230;-63
2024/04/22 03:38:11;;;;;;;1.90;1.80;;;;;;;2.66;72.62;100527.56;5452125;26;20246;-61
2024/04/22 03:40:40;;;;;;;2.53;2.20;;;;;;;2.67;72.52;100524.19;5450859;26;20986;-61
2024/04/22 03:43:12;;;;;;;3.13;1.83;;;;;;;2.65;72.65;100522.41;5453840;26;20218;-63
2024/04/22 03:45:44;;;;;;;2.73;2.20;;;;;;;2.64;72.81;100535.97;5453332;26;20739;-64
2024/04/22 03:51:00;;;;;;;3.73;2.10;;;;;;;2.63;72.78;100531.72;5452544;26;20242;-69
2024/04/22 03:53:32;;;;;;;3.30;2.13;;;;;;;2.62;73.14;100532.53;5453621;26;20653;-68
2024/04/22 03:56:02;;;;;;;2.73;2.07;;;;;;;2.63;72.92;100534.25;5443549;26;20578;-67
2024/04/22 03:58:32;;;;;;;2.60;1.73;;;;;;;2.64;73.07;100536.81;5453629;26;20568;-67
2024/04/22 04:00:59;;;;;;;2.30;2.10;;;;;;;2.66;73.08;100526.72;5452561;26;20238;-67
2024/04/22 04:03:29;;;;;;;2.93;1.80;;;;;;;2.66;73.19;100526.72;5453692;26;20218;-66
2024/04/22 04:05:56;;;;;;;3.27;2.00;;;;;;;2.65;72.96;100541.13;5453333;26;20333;-67
2024/04/22 04:08:26;;;;;;;1.90;1.80;;;;;;;2.64;72.94;100534.28;5449433;26;20655;-68
2024/04/22 04:11:00;;;;;;;3.37;2.17;;;;;;;2.65;73.07;100524.97;5452673;26;20609;-67
2024/04/22 04:13:30;;;;;;;6.30;2.10;;;;;;;2.66;73.19;100541.97;5453681;26;20284;-66
2024/04/22 04:15:58;;;;;;;2.90;1.87;;;;;;;2.66;72.92;100547.94;5453239;26;20701;-67
2024/04/22 04:18:27;;;;;;;2.53;2.20;;;;;;;2.68;73.61;100540.31;5452965;26;20265;-67
2024/04/22 04:20:55;;;;;;;2.40;1.87;;;;;;;2.72;73.28;100546.38;5452450;26;20265;-69
2024/04/22 04:23:24;;;;;;;2.40;2.20;;;;;;;2.75;73.22;100544.75;5453037;26;20669;-67
2024/04/22 04:25:51;;;;;;;2.97;2.40;;;;;;;2.74;72.89;100545.59;5450480;26;20242;-69
2024/04/22 04:28:24;;;;;;;4.53;1.87;;;;;;;2.75;72.74;100544.75;5452868;26;20314;-66
2024/04/22 04:30:53;;;;;;;6.10;2.17;;;;;;;2.76;72.98;100553.25;5445416;26;20304;-67
2024/04/22 04:33:23;;;;;;;3.40;2.27;;;;;;;2.76;72.83;100554.16;5450134;26;20401;-66
2024/04/22 04:35:57;;;;;;;4.23;2.60;;;;;;;2.77;72.88;100560.94;5452834;26;20230;-66
2024/04/22 04:38:27;;;;;;;2.60;1.87;;;;;;;2.80;73.31;100566.13;5420771;26;20326;-63
2024/04/22 04:40:54;;;;;;;5.10;2.60;;;;;;;2.81;72.74;100565.31;5446909;26;20246;-69
2024/04/22 04:43:32;;;;;;;2.47;2.20;;;;;;;2.79;73.04;100568.63;5453123;26;20674;-68
2024/04/22 04:45:59;;;;;;;4.23;2.23;;;;;;;2.74;73.10;100565.94;5452714;26;20237;-67
2024/04/22 04:48:29;;;;;;;3.83;2.10;;;;;;;2.69;73.33;100559.88;5452462;26;20230;-66
2024/04/22 04:50:56;;;;;;;4.13;2.50;;;;;;;2.77;73.23;100568.59;5452306;26;20234;-68
2024/04/22 04:53:26;;;;;;;2.87;2.27;;;;;;;2.78;73.46;100572.00;5452778;26;20619;-70
2024/04/22 04:55:54;;;;;;;4.97;2.10;;;;;;;2.79;73.44;100574.56;5446123;26;20262;-65
2024/04/22 04:58:23;;;;;;;5.23;2.97;;;;;;;2.78;73.45;100569.44;5454170;26;20242;-63
2024/04/22 05:00:54;;;;;;;4.33;2.33;;;;;;;2.79;73.44;100573.69;5450966;26;20651;-63
2024/04/22 05:03:24;;;;;;;2.43;2.20;;;;;;;2.83;73.67;100580.59;5453083;26;20390;-63
2024/04/22 05:05:58;;;;;;;3.30;2.53;;;;;;;2.81;73.77;100588.22;5453092;26;20719;-64
2024/04/22 05:08:27;;;;;;;3.90;2.40;;;;;;;2.79;73.69;100584.75;5453070;26;20229;-63
2024/04/22 05:10:56;;;;;;;3.37;2.50;;;;;;;2.81;73.77;100583.13;5451775;26;20582;-63
2024/04/22 05:13:26;;;;;;;9.63;2.53;;;;;;;2.81;73.82;100580.56;5449345;26;20313;-64
2024/04/22 05:15:56;;;;;;;4.60;3.17;;;;;;;2.74;74.05;100576.13;5434079;26;20239;-68
2024/04/22 05:18:26;;;;;;;2.63;2.30;;;;;;;2.72;74.30;100572.66;5436503;26;20234;-63
2024/04/22 05:20:54;;;;;;;3.13;2.47;;;;;;;2.75;74.40;100577.84;5452539;26;20830;-64
2024/04/22 05:23:24;;;;;;;3.00;2.63;;;;;;;2.68;73.86;100581.03;5447764;26;20729;-62
2024/04/22 05:25:51;;;;;;;2.90;2.27;;;;;;;2.73;74.28;100579.50;5452671;26;20325;-63
2024/04/22 05:28:22;;;;;;;4.23;2.57;;;;;;;2.77;74.56;100581.31;5446723;26;20331;-64
2024/04/22 05:30:52;;;;;;;3.87;2.37;;;;;;;2.80;74.30;100580.50;5451402;26;20233;-62
2024/04/22 05:36:14;;;;;;;3.53;2.73;;;;;;;2.85;74.45;100581.53;5444290;26;20328;-63
2024/04/22 05:38:45;;;;;;;2.63;2.40;;;;;;;2.84;73.94;100577.25;5441817;26;20278;-64
2024/04/22 05:41:15;;;;;;;3.27;2.67;;;;;;;2.85;74.16;100579.84;5446284;26;20369;-63
2024/04/22 05:43:45;;;;;;;2.73;2.30;;;;;;;2.91;74.21;100579.16;5448388;26;20651;-61
2024/04/22 05:46:15;;;;;;;3.53;2.60;;;;;;;2.92;73.93;100580.88;5451376;26;20234;-60
2024/04/22 05:48:48;;;;;;;2.47;2.23;;;;;;;2.92;74.34;100578.34;5450527;26;20246;-61
2024/04/22 05:51:15;;;;;;;3.03;2.33;;;;;;;3.00;74.08;100574.31;5451140;26;20728;-62
2024/04/22 05:53:45;;;;;;;6.33;2.63;;;;;;;3.04;74.57;100580.34;5446951;26;22048;-61
2024/04/22 05:56:13;;;;;;;3.73;2.80;;;;;;;3.04;73.88;100572.72;5449970;26;20242;-62
2024/04/22 05:58:42;;;;;;;5.17;2.77;;;;;;;2.98;74.16;100570.00;5446162;26;20253;-62
2024/04/22 06:01:12;;;;;;;2.83;2.63;;;;;;;2.98;74.32;100565.75;5449235;26;20290;-62
2024/04/22 06:03:40;;;;;;;4.37;2.90;;;;;;;3.05;74.33;100576.97;5449855;26;20756;-60
2024/04/22 06:06:12;;;;;;;4.63;2.73;;;;;;;2.99;74.47;100572.59;5450942;26;20233;-64
2024/04/22 06:08:40;;;;;;;3.73;2.57;;;;;;;3.00;74.46;100579.41;5450298;26;20230;-64
2024/04/22 06:11:09;;;;;;;3.63;2.73;;;;;;;3.02;74.81;100571.78;5450725;26;20237;-64
2024/04/22 06:13:37;;;;;;;4.97;2.63;;;;;;;3.08;74.76;100570.28;5450127;26;20238;-63
2024/04/22 06:16:08;;;;;;;3.43;3.13;;;;;;;3.13;74.41;100565.34;5445883;26;20642;-64
2024/04/22 06:18:35;;;;;;;4.43;2.80;;;;;;;3.20;73.97;100561.25;5448514;26;20234;-61
2024/04/22 06:21:05;;;;;;;4.67;3.77;;;;;;;3.31;73.65;100570.88;5447735;26;20345;-61
2024/04/22 06:23:35;;;;;;;2.93;2.40;;;;;;;3.37;73.20;100571.06;5448529;26;20258;-62
2024/04/22 06:26:05;;;;;;;3.07;2.33;;;;;;;3.42;73.06;100562.66;5445905;26;20249;-62
2024/04/22 06:28:33;;;;;;;2.77;2.50;;;;;;;3.45;72.61;100567.84;5450500;26;20245;-60
2024/04/22 06:31:03;;;;;;;5.00;2.40;;;;;;;3.46;71.93;100578.09;5450449;26;20270;-61
2024/04/22 06:33:30;;;;;;;2.80;2.13;;;;;;;3.51;72.24;100568.00;5448465;26;20380;-63
2024/04/22 06:36:00;;;;;;;3.53;2.13;;;;;;;3.55;71.66;100570.66;5451135;26;20996;-60
2024/04/22 06:38:30;;;;;;;4.87;2.47;;;;;;;3.55;71.44;100573.22;5450751;26;20285;-60
2024/04/22 06:41:02;;;;;;;4.43;2.93;;;;;;;3.54;71.81;100565.53;5449269;26;20254;-61
2024/04/22 06:43:29;;;;;;;3.97;2.30;;;;;;;3.56;70.60;100561.34;5446891;26;20821;-61
2024/04/22 06:45:59;;;;;;;3.50;2.60;;;;;;;3.61;70.99;100567.44;5450287;26;20244;-63
2024/04/22 06:48:27;;;;;;;5.33;2.77;;;;;;;3.72;70.74;100558.34;5450892;26;20311;-62
2024/04/22 06:50:58;;;;;;;5.00;2.70;;;;;;;3.84;70.23;100566.28;5449864;26;20253;-62
2024/04/22 06:53:27;;;;;;;3.67;2.73;;;;;;;3.93;70.19;100577.53;5449455;26;20296;-62
2024/04/22 06:55:57;;;;;;;4.57;2.67;;;;;;;4.02;70.01;100578.63;5447805;26;20787;-60
2024/04/22 06:58:27;;;;;;;3.07;2.47;;;;;;;4.10;69.59;100568.59;5448682;26;20296;-60
2024/04/22 07:00:57;;;;;;;3.17;2.60;;;;;;;4.11;69.31;100581.38;5449381;26;20277;-62
2024/04/22 07:03:24;;;;;;;2.67;2.20;;;;;;;4.09;69.16;100580.47;5447579;26;20303;-61
2024/04/22 07:05:54;;;;;;;4.57;3.43;;;;;;;4.09;69.40;100574.53;5449129;26;20281;-61
2024/04/22 07:08:21;;;;;;;3.47;2.60;;;;;;;4.18;69.00;100576.41;5449537;26;20277;-62
2024/04/22 07:10:51;;;;;;;5.80;2.50;;;;;;;4.16;68.80;100581.50;5449179;26;20340;-59
2024/04/22 07:13:18;;;;;;;3.27;2.83;;;;;;;4.15;68.24;100569.53;5446608;26;20573;-60
2024/04/22 07:15:51;;;;;;;2.87;2.67;;;;;;;4.17;68.69;100569.59;5445779;26;20281;-61
2024/04/22 07:18:18;;;;;;;3.87;2.90;;;;;;;4.36;67.93;100580.25;5448522;26;20317;-61
2024/04/22 07:20:48;;;;;;;2.93;2.73;;;;;;;4.44;67.58;100582.09;5447328;26;20353;-60
2024/04/22 07:23:15;;;;;;;4.73;2.67;;;;;;;4.58;67.26;100567.94;5448558;26;20276;-61
2024/04/22 07:25:44;;;;;;;3.90;2.63;;;;;;;4.67;66.18;100565.56;5444487;26;20671;-62
2024/04/22 07:28:12;;;;;;;3.80;2.80;;;;;;;4.88;65.71;100570.25;5440942;26;20255;-61
2024/04/22 07:30:43;;;;;;;2.83;2.50;;;;;;;5.01;64.71;100569.69;5451844;26;20242;-62
2024/04/22 07:33:13;;;;;;;4.13;2.40;;;;;;;5.07;64.42;100571.47;5449284;26;20345;-63
2024/04/22 07:35:50;;;;;;;10.97;3.23;;;;;;;5.23;64.46;100580.31;5449298;26;20280;-63
2024/04/22 07:38:21;;;;;;;2.93;2.20;;;;;;;5.25;64.30;100582.03;5444422;26;20350;-61
2024/04/22 07:40:52;;;;;;;4.77;2.00;;;;;;;5.23;65.00;100591.38;5443899;26;20780;-61
2024/04/22 07:43:19;;;;;;;3.50;2.10;;;;;;;5.17;65.00;100586.16;5446623;26;20250;-60
2024/04/22 07:45:49;;;;;;;3.20;2.30;;;;;;;5.05;65.60;100585.94;5449103;26;20305;-62
2024/04/22 07:48:19;;;;;;;3.93;2.57;;;;;;;4.95;65.52;100587.44;5448240;26;20250;-60
2024/04/22 07:50:48;;;;;;;2.43;2.23;;;;;;;4.80;66.28;100594.78;5449315;26;20234;-61
2024/04/22 07:53:16;;;;;;;3.60;2.50;;;;;;;4.77;67.09;100576.84;5449445;26;20242;-61
2024/04/22 07:55:46;;;;;;;3.10;2.17;;;;;;;4.80;66.21;100592.22;5449283;26;20861;-60
2024/04/22 07:58:14;;;;;;;3.43;2.77;;;;;;;4.82;66.77;100585.44;5448946;26;20272;-61
2024/04/22 08:00:45;;;;;;;2.33;2.13;;;;;;;4.83;65.97;100590.59;5447230;26;20254;-62
2024/04/22 08:03:13;;;;;;;3.40;2.80;;;;;;;4.81;66.21;100586.28;5449392;26;20249;-62
2024/04/22 08:05:46;;;;;;;2.53;2.33;;;;;;;4.74;65.69;100587.84;5447987;26;20342;-63
2024/04/22 08:08:18;;;;;;;3.33;2.23;;;;;;;4.74;66.19;100592.09;5449054;26;20238;-61
2024/04/22 08:10:49;;;;;;;3.30;2.90;;;;;;;4.60;66.32;100579.91;5448655;26;20226;-62
2024/04/22 08:13:16;;;;;;;2.50;2.30;;;;;;;4.65;66.56;100597.03;5449076;26;20326;-63
2024/04/22 08:15:46;;;;;;;2.73;2.43;;;;;;;4.72;66.53;100596.31;5444153;26;20260;-59
2024/04/22 08:18:14;;;;;;;12.33;2.50;;;;;;;4.79;66.02;100588.81;5449104;26;20242;-60
2024/04/22 08:20:47;;;;;;;5.10;2.70;;;;;;;4.90;65.75;100589.03;5448757;26;20243;-60
2024/04/22 08:23:14;;;;;;;2.43;2.03;;;;;;;5.00;65.20;100583.25;5448167;26;20230;-62
2024/04/22 08:25:44;;;;;;;2.87;2.17;;;;;;;5.07;64.49;100581.69;5448220;26;20234;-60
2024/04/22 08:28:12;;;;;;;2.30;2.10;;;;;;;5.09;63.63;100588.56;5445087;26;22032;-60
2024/04/22 08:30:42;;;;;;;4.27;1.97;;;;;;;5.06;62.89;100585.09;5446907;26;20787;-64
2024/04/22 08:33:09;;;;;;;4.77;2.20;;;;;;;4.92;63.05;100572.03;5446413;26;21190;-61
2024/04/22 08:35:48;;;;;;;4.20;2.10;;;;;;;4.93;62.86;100578.00;5447936;26;21170;-61
2024/04/22 08:38:15;;;;;;;3.53;2.00;;;;;;;4.85;61.90;100576.16;5451753;26;20724;-62
2024/04/22 08:40:46;;;;;;;4.93;2.10;;;;;;;4.78;61.19;100579.41;5452828;26;20214;-61
2024/04/22 08:43:14;;;;;;;1.83;1.50;;;;;;;4.87;60.62;100583.00;5452635;26;20238;-63
2024/04/22 08:45:44;;;;;;;2.83;1.40;;;;;;;4.96;60.87;100584.03;5450193;26;20307;-62
2024/04/22 08:48:12;;;;;;;2.30;1.43;;;;;;;5.06;59.29;100577.44;5452625;26;20266;-63
2024/04/22 08:50:43;;;;;;;1.80;1.70;;;;;;;5.10;59.12;100586.88;5452490;26;20386;-62
2024/04/22 08:53:14;;;;;;;3.07;1.90;;;;;;;5.14;59.19;100595.44;5452156;26;20337;-61
2024/04/22 08:55:44;;;;;;;1.67;1.50;;;;;;;5.15;59.45;100598.03;5451937;26;20277;-62
2024/04/22 08:58:11;;;;;;;1.63;1.53;;;;;;;5.11;60.04;100598.78;5451793;26;20746;-63
2024/04/22 09:00:42;;;;;;;1.70;1.50;;;;;;;5.02;60.36;100608.84;5452440;26;20305;-61
2024/04/22 09:03:10;;;;;;;1.83;1.40;;;;;;;4.90;60.57;100593.25;5450846;26;20729;-60
2024/04/22 09:05:39;;;;;;;2.80;1.80;;;;;;;4.88;60.74;100613.66;5452469;26;20335;-61
2024/04/22 09:08:09;;;;;;;2.37;1.80;;;;;;;4.82;61.21;100613.53;5452006;26;20887;-63
2024/04/22 09:10:41;;;;;;;1.60;1.50;;;;;;;4.74;61.23;100618.47;5452383;26;20256;-62
2024/04/22 09:13:28;;;;;;;3.00;1.50;;;;;;;4.67;60.88;100620.88;5452053;26;20238;-64
2024/04/22 09:15:58;;;;;;;5.00;1.70;;;;;;;4.53;60.45;100612.94;5455628;26;20241;-65
2024/04/22 09:18:26;;;;;;;1.33;1.23;;;;;;;4.51;60.52;100627.34;5470781;26;20246;-62
2024/04/22 09:21:07;;;;;;;2.23;1.20;;;;;;;4.49;60.72;100637.53;5450431;26;20289;-64
2024/04/22 09:23:35;;;;;;;1.40;1.30;;;;;;;4.52;60.50;100631.59;5452223;26;20264;-62
2024/04/22 09:26:08;;;;;;;2.17;1.57;;;;;;;4.59;60.73;100630.91;5451836;26;20223;-61
2024/04/22 09:28:37;;;;;;;1.77;1.43;;;;;;;4.67;60.27;100644.69;5449385;26;20261;-61
2024/04/22 09:31:07;;;;;;;2.23;1.30;;;;;;;4.75;59.70;100645.75;5443152;26;20250;-61
2024/04/22 09:33:35;;;;;;;2.60;1.40;;;;;;;4.77;59.36;100646.63;5451439;26;20249;-62
2024/04/22 09:36:07;;;;;;;0.90;0.90;;;;;;;4.78;59.49;100650.91;5450859;26;20675;-62
2024/04/22 09:38:35;;;;;;;2.43;1.70;;;;;;;4.81;58.94;100652.66;5452182;26;20765;-61
2024/04/22 09:41:21;;;;;;;1.80;1.70;;;;;;;4.83;59.31;100651.88;5451191;26;20589;-59
2024/04/22 09:43:51;;;;;;;1.73;1.57;;;;;;;4.79;58.95;100651.78;5450408;26;20303;-61
2024/04/22 09:46:29;;;;;;;1.73;1.57;;;;;;;4.64;59.34;100661.63;5445981;26;20257;-59
2024/04/22 09:48:57;;;;;;;1.67;1.40;;;;;;;4.52;59.50;100657.13;5448753;26;20574;-59
2024/04/22 09:51:29;;;;;;;1.43;1.20;;;;;;;4.51;60.22;100665.59;5451578;26;20230;-59
2024/04/22 09:53:58;;;;;;;2.10;1.40;;;;;;;4.53;60.43;100663.97;5450665;26;20234;-59
2024/04/22 09:56:35;;;;;;;1.57;1.30;;;;;;;4.52;60.72;100673.28;5449974;26;20625;-59
2024/04/22 09:59:04;;;;;;;1.57;1.43;;;;;;;4.55;60.60;100670.81;5451523;26;20721;-59
2024/04/22 10:01:34;;;;;;;1.90;1.43;;;;;;;4.58;60.68;100672.59;5448093;26;20246;-60
2024/04/22 10:04:02;;;;;;;3.53;1.80;;;;;;;4.55;60.29;100672.50;5451248;26;20301;-61
2024/04/22 10:06:33;;;;;;;2.23;1.60;;;;;;;4.51;60.52;100683.47;5449540;26;20242;-58
2024/04/22 10:09:01;;;;;;;1.93;1.53;;;;;;;4.47;60.89;100682.53;5450829;26;20690;-60
2024/04/22 10:11:35;;;;;;;3.63;1.40;;;;;;;4.51;61.10;100686.03;5450511;26;20277;-58
2024/04/22 10:14:10;;;;;;;1.67;1.50;;;;;;;4.59;60.99;100684.50;5451177;26;20363;-59
2024/04/22 10:16:41;;;;;;;1.40;1.30;;;;;;;4.64;60.98;100670.19;5425342;26;20713;-59
2024/04/22 10:19:08;;;;;;;2.87;1.70;;;;;;;4.75;60.25;100675.50;5448515;26;20288;-58
2024/04/22 10:21:42;;;;;;;2.43;1.63;;;;;;;4.82;60.23;100678.25;5451184;26;20233;-58
2024/04/22 10:24:11;;;;;;;1.70;1.40;;;;;;;4.92;60.06;100679.28;5450582;26;20234;-56
2024/04/22 10:26:46;;;;;;;2.17;1.97;;;;;;;4.99;59.48;100677.72;5449903;26;20278;-59
2024/04/22 10:29:30;;;;;;;2.37;1.43;;;;;;;5.05;59.60;100677.88;5448476;26;20295;-59
2024/04/22 10:32:00;;;;;;;2.00;1.80;;;;;;;5.10;58.95;100666.03;5449892;26;20434;-57
2024/04/22 10:34:28;;;;;;;2.23;1.93;;;;;;;5.12;58.13;100668.63;5450272;26;20280;-56
2024/04/22 10:36:58;;;;;;;1.93;1.70;;;;;;;5.09;57.74;100672.00;5436717;26;20583;-57
2024/04/22 10:39:25;;;;;;;2.00;1.70;;;;;;;5.08;57.50;100677.91;5415196;26;20263;-56
2024/04/22 10:41:58;;;;;;;1.73;1.57;;;;;;;5.06;57.37;100677.03;5426056;26;20235;-59
2024/04/22 10:44:25;;;;;;;3.87;1.60;;;;;;;5.07;57.61;100687.28;5450825;26;20272;-55
2024/04/22 10:46:56;;;;;;;2.17;1.60;;;;;;;5.10;57.34;100678.81;5449956;26;20226;-58
2024/04/22 10:49:29;;;;;;;1.87;1.43;;;;;;;5.18;57.30;100674.72;5451000;26;20280;-59
2024/04/22 10:51:59;;;;;;;1.57;1.43;;;;;;;5.27;57.38;100672.38;5450136;26;20246;-59
2024/04/22 10:54:26;;;;;;;1.33;1.23;;;;;;;5.38;57.44;100666.63;5431914;26;20234;-59
2024/04/22 10:56:59;;;;;;;4.30;1.57;;;;;;;5.47;56.96;100664.22;5449464;26;20254;-58
2024/04/22 10:59:26;;;;;;;1.30;1.20;;;;;;;5.51;56.88;100666.00;5449259;26;20288;-59
2024/04/22 11:01:56;;;;;;;1.53;1.30;;;;;;;5.49;56.25;100670.25;5448134;26;20697;-59
2024/04/22 11:04:24;;;;;;;2.37;2.13;;;;;;;5.45;56.62;100676.09;5439143;26;20744;-60
2024/04/22 11:06:54;;;;;;;1.40;1.30;;;;;;;5.42;56.68;100676.06;5449646;26;20234;-57
2024/04/22 11:09:21;;;;;;;3.20;1.40;;;;;;;5.30;57.07;100677.53;5448080;26;20844;-59
2024/04/22 11:11:51;;;;;;;3.37;1.67;;;;;;;5.26;57.30;100674.88;5449817;26;20234;-58
2024/04/22 11:14:22;;;;;;;1.47;1.33;;;;;;;5.22;57.38;100676.50;5416864;26;20673;-58
2024/04/22 11:16:57;;;;;;;1.90;1.67;;;;;;;5.11;57.17;100680.53;5449449;26;20315;-59
2024/04/22 11:19:26;;;;;;;2.77;1.53;;;;;;;5.01;57.28;100681.19;5446416;26;20251;-60
2024/04/22 11:21:57;;;;;;;2.93;1.87;;;;;;;4.99;57.37;100680.28;5454114;26;20285;-59
2024/04/22 11:24:24;;;;;;;1.90;1.70;;;;;;;4.97;58.39;100692.16;5453833;26;20748;-61
2024/04/22 11:26:54;;;;;;;2.03;1.60;;;;;;;4.99;58.07;100686.25;5452055;26;20315;-59
2024/04/22 11:29:25;;;;;;;1.77;1.60;;;;;;;5.04;57.55;100689.78;5452839;26;20242;-59
2024/04/22 11:31:55;;;;;;;3.70;1.90;;;;;;;5.05;57.44;100685.53;5431988;26;20243;-59
2024/04/22 11:34:23;;;;;;;1.70;1.60;;;;;;;5.09;57.51;100689.88;5452359;26;20238;-59
2024/04/22 11:36:55;;;;;;;1.70;1.60;;;;;;;5.10;57.26;100691.59;5452037;26;20234;-57
2024/04/22 11:39:25;;;;;;;2.03;1.83;;;;;;;5.09;57.09;100694.97;5443249;26;20306;-59
2024/04/22 11:41:55;;;;;;;3.20;2.30;;;;;;;5.08;57.46;100693.22;5453883;26;20329;-59
2024/04/22 11:44:25;;;;;;;2.40;1.50;;;;;;;5.14;57.34;100693.38;5452570;26;20284;-59
2024/04/22 11:46:55;;;;;;;1.83;1.67;;;;;;;5.23;57.49;100691.03;5441898;26;20251;-59
2024/04/22 11:49:22;;;;;;;1.77;1.40;;;;;;;5.32;57.23;100688.63;5417484;26;20270;-59
2024/04/22 11:51:52;;;;;;;2.13;1.53;;;;;;;5.44;56.59;100685.47;5417592;26;20556;-58